Time;durP1;ratioP1;P1;durP2;ratioP2;P2;SDS_P1;SDS_P2;PMS_P1;PMS_P2;Temp;Humidity;BMP_temperature;BMP_pressure;BME280_temperature;BME280_humidity;BME280_pressure;Samples;Min_cycle;Max_cycle;Signal;HPM_P1;HPM_P2
2020/12/07 00:01:25;;;;;;;1.63;1.52;;;4.00;99.90;;;;;;4087864;28;20059;-88
2020/12/07 00:03:26;;;;;;;6.82;3.90;;;4.00;99.90;;;;;;4085528;29;20600;-87
2020/12/07 00:05:28;;;;;;;6.00;3.45;;;4.00;99.90;;;;;;4084816;29;20055;-88
2020/12/07 00:07:30;;;;;;;2.85;2.38;;;4.00;99.90;;;;;;4069227;29;20075;-87
2020/12/07 00:09:32;;;;;;;4.40;1.73;;;4.00;99.90;;;;;;4069738;29;20477;-88
2020/12/07 00:11:34;;;;;;;4.72;2.42;;;4.00;99.90;;;;;;4085491;28;20056;-88
2020/12/07 00:13:36;;;;;;;2.90;1.65;;;3.90;99.90;;;;;;4085044;29;20074;-88
2020/12/07 00:15:37;;;;;;;5.30;2.47;;;3.90;99.90;;;;;;4101273;28;20174;-88
2020/12/07 00:17:39;;;;;;;3.67;3.13;;;3.90;99.90;;;;;;4085227;29;20155;-88
2020/12/07 00:19:41;;;;;;;3.50;1.33;;;3.90;99.90;;;;;;4101274;28;20078;-90
2020/12/07 00:21:42;;;;;;;4.25;2.10;;;3.90;99.90;;;;;;4085386;29;20531;-88
2020/12/07 00:23:44;;;;;;;2.20;1.90;;;3.80;99.90;;;;;;4069482;29;20087;-88
2020/12/07 00:25:46;;;;;;;3.30;2.92;;;3.90;99.90;;;;;;4087488;28;20130;-88
2020/12/07 00:27:47;;;;;;;5.38;2.53;;;3.80;99.90;;;;;;4085438;29;20527;-88
2020/12/07 00:29:50;;;;;;;2.65;1.77;;;3.90;99.90;;;;;;4086947;29;20146;-88
2020/12/07 00:31:54;;;;;;;2.10;1.90;;;3.90;99.90;;;;;;4085658;28;20055;-88
2020/12/07 00:33:58;;;;;;;1.58;1.08;;;3.90;99.90;;;;;;4084597;29;20142;-88
2020/12/07 00:36:00;;;;;;;2.53;2.33;;;3.90;99.90;;;;;;4085570;29;20058;-87
2020/12/07 00:38:01;;;;;;;2.55;1.67;;;3.80;99.90;;;;;;4084084;29;20119;-88
2020/12/07 00:40:03;;;;;;;1.95;1.42;;;3.80;99.90;;;;;;4100484;28;20051;-87
2020/12/07 00:42:05;;;;;;;1.25;1.15;;;3.80;99.90;;;;;;4100620;28;20146;-88
2020/12/07 00:44:06;;;;;;;2.70;1.98;;;3.80;99.90;;;;;;4084823;29;20068;-88
2020/12/07 00:46:07;;;;;;;2.60;2.13;;;3.70;99.90;;;;;;4068570;29;20071;-88
2020/12/07 00:48:09;;;;;;;3.83;2.22;;;3.60;99.90;;;;;;4069652;28;20052;-87
2020/12/07 00:50:12;;;;;;;1.33;1.23;;;3.60;99.90;;;;;;4069176;28;20056;-88
2020/12/07 00:52:13;;;;;;;4.25;1.98;;;3.50;99.90;;;;;;4084034;29;20064;-88
2020/12/07 00:54:15;;;;;;;2.58;2.38;;;3.60;99.90;;;;;;4100725;28;20057;-88
2020/12/07 00:56:17;;;;;;;3.53;2.47;;;3.60;99.90;;;;;;4083992;29;20567;-89
2020/12/07 00:58:18;;;;;;;2.30;2.10;;;3.50;99.90;;;;;;4084080;29;20061;-87
2020/12/07 01:00:19;;;;;;;3.80;2.15;;;3.40;99.90;;;;;;4068616;29;20060;-88
2020/12/07 01:02:21;;;;;;;3.03;2.35;;;3.40;99.90;;;;;;4084303;29;20059;-89
2020/12/07 01:04:23;;;;;;;2.42;1.80;;;3.30;99.90;;;;;;4069677;29;20552;-87
2020/12/07 01:06:28;;;;;;;1.45;1.33;;;3.30;99.90;;;;;;4099862;29;20067;-87
2020/12/07 01:08:29;;;;;;;4.10;2.25;;;3.30;99.90;;;;;;4099465;28;20050;-88
2020/12/07 01:10:31;;;;;;;6.63;2.97;;;3.30;99.90;;;;;;4083829;29;20043;-88
2020/12/07 01:12:33;;;;;;;2.58;1.38;;;3.30;99.90;;;;;;4084157;28;20075;-88
2020/12/07 01:14:34;;;;;;;2.65;1.30;;;3.30;99.90;;;;;;4084006;29;20484;-87
2020/12/07 01:16:36;;;;;;;2.72;2.22;;;3.30;99.90;;;;;;4099409;28;20162;-87
2020/12/07 01:18:37;;;;;;;2.47;1.67;;;3.30;99.90;;;;;;4067574;29;20139;-90
2020/12/07 01:20:40;;;;;;;5.88;2.60;;;3.20;99.90;;;;;;4067721;29;20056;-87
2020/12/07 01:22:41;;;;;;;1.75;1.48;;;3.20;99.90;;;;;;4083311;29;20052;-88
2020/12/07 01:24:42;;;;;;;4.45;1.13;;;3.20;99.90;;;;;;4099451;28;20055;-88
2020/12/07 01:26:45;;;;;;;3.92;3.47;;;3.20;99.90;;;;;;4069528;29;20052;-87
2020/12/07 01:28:47;;;;;;;3.88;2.45;;;3.20;99.90;;;;;;4083528;29;20057;-88
2020/12/07 01:30:49;;;;;;;1.45;1.23;;;3.10;99.90;;;;;;4067741;29;20059;-88
2020/12/07 01:32:50;;;;;;;3.22;1.52;;;3.10;99.90;;;;;;4083982;29;20102;-91
2020/12/07 01:34:51;;;;;;;1.60;1.50;;;3.10;99.90;;;;;;4077415;29;20056;-88
2020/12/07 01:36:52;;;;;;;4.93;2.13;;;3.10;99.90;;;;;;4083362;29;20058;-88
2020/12/07 01:38:54;;;;;;;3.20;2.88;;;3.20;99.90;;;;;;4068274;29;20062;-88
2020/12/07 01:40:55;;;;;;;5.95;1.85;;;3.20;99.90;;;;;;4069030;29;20052;-89
2020/12/07 01:42:56;;;;;;;5.18;1.90;;;3.20;99.90;;;;;;4084451;29;20055;-88
2020/12/07 01:44:58;;;;;;;2.03;1.13;;;3.10;99.90;;;;;;4068160;29;20064;-87
2020/12/07 01:47:00;;;;;;;1.95;1.67;;;3.20;99.90;;;;;;4100253;28;20054;-88
2020/12/07 01:49:02;;;;;;;2.17;1.98;;;3.20;99.90;;;;;;4083544;29;20138;-88
2020/12/07 01:51:03;;;;;;;2.45;1.35;;;3.30;99.90;;;;;;4084164;29;20055;-87
2020/12/07 01:53:04;;;;;;;2.10;1.42;;;3.30;99.90;;;;;;4098864;28;20056;-88
2020/12/07 01:55:05;;;;;;;1.58;0.88;;;3.30;99.90;;;;;;4069904;29;20060;-89
2020/12/07 01:57:07;;;;;;;2.15;1.42;;;3.20;99.90;;;;;;4099542;28;20533;-88
2020/12/07 01:59:08;;;;;;;2.58;1.88;;;3.30;99.90;;;;;;4084552;29;20516;-87
2020/12/07 02:01:10;;;;;;;2.13;1.75;;;3.20;99.90;;;;;;4085561;29;20420;-88
2020/12/07 02:03:11;;;;;;;1.63;1.52;;;3.30;99.90;;;;;;4083657;29;20087;-89
2020/12/07 02:05:12;;;;;;;2.17;1.95;;;3.30;99.90;;;;;;4085631;29;20492;-88
2020/12/07 02:07:20;;;;;;;0.80;0.60;;;3.30;99.90;;;;;;4101151;28;20619;-88
2020/12/07 02:09:27;;;;;;;1.80;1.42;;;3.30;99.90;;;;;;4084324;29;20059;-88
2020/12/07 02:11:28;;;;;;;3.10;1.40;;;3.30;99.90;;;;;;4085453;29;20052;-88
2020/12/07 02:13:31;;;;;;;2.03;1.63;;;3.30;99.90;;;;;;4084054;29;20555;-88
2020/12/07 02:15:33;;;;;;;6.38;1.88;;;3.30;99.90;;;;;;4068081;29;20139;-88
2020/12/07 02:17:34;;;;;;;7.65;1.90;;;3.30;99.90;;;;;;4098152;28;20067;-88
2020/12/07 02:19:36;;;;;;;1.38;0.60;;;3.30;99.90;;;;;;4083155;29;20050;-88
2020/12/07 02:21:40;;;;;;;1.05;0.90;;;3.30;99.90;;;;;;4099475;28;20076;-88
2020/12/07 02:23:41;;;;;;;3.72;1.83;;;3.30;99.90;;;;;;4067356;29;20056;-88
2020/12/07 02:25:43;;;;;;;2.70;0.98;;;3.20;99.90;;;;;;4067403;29;20056;-87
2020/12/07 02:27:44;;;;;;;3.10;1.92;;;3.20;99.90;;;;;;4083002;29;20083;-88
2020/12/07 02:29:46;;;;;;;2.08;1.60;;;3.20;99.90;;;;;;4101159;28;20531;-88
2020/12/07 02:31:47;;;;;;;3.95;2.00;;;3.20;99.90;;;;;;4083064;29;20062;-89
2020/12/07 02:33:48;;;;;;;2.65;1.80;;;3.30;99.90;;;;;;4067477;28;20083;-88
2020/12/07 02:35:52;;;;;;;5.05;1.80;;;3.30;99.90;;;;;;4083618;28;20059;-88
2020/12/07 02:37:53;;;;;;;1.00;0.70;;;3.30;99.90;;;;;;4067666;29;20056;-90
2020/12/07 02:39:56;;;;;;;2.70;1.58;;;3.30;99.90;;;;;;4083656;29;20055;-88
2020/12/07 02:41:57;;;;;;;2.50;0.80;;;3.30;99.90;;;;;;4082760;29;20059;-89
2020/12/07 02:43:58;;;;;;;1.52;1.42;;;3.30;99.90;;;;;;4082270;29;20068;-89
2020/12/07 02:46:00;;;;;;;2.47;1.85;;;3.20;99.90;;;;;;4083935;28;20442;-88
2020/12/07 02:48:01;;;;;;;2.20;1.50;;;3.20;99.90;;;;;;4067669;29;20411;-89
2020/12/07 02:50:05;;;;;;;3.28;2.15;;;3.20;99.90;;;;;;4067209;29;20052;-88
2020/12/07 02:52:06;;;;;;;3.70;1.98;;;3.20;99.90;;;;;;4070159;28;20500;-88
2020/12/07 02:54:07;;;;;;;2.22;0.98;;;3.20;99.90;;;;;;4082935;29;20059;-89
2020/12/07 02:56:09;;;;;;;2.90;2.05;;;3.20;99.90;;;;;;4069326;29;20050;-88
2020/12/07 02:58:10;;;;;;;1.20;1.08;;;3.20;99.90;;;;;;4086776;28;20059;-88
2020/12/07 03:00:11;;;;;;;7.13;1.83;;;3.20;99.90;;;;;;4083327;29;20059;-88
2020/12/07 03:02:13;;;;;;;2.00;1.25;;;3.20;99.90;;;;;;4086193;29;20056;-88
2020/12/07 03:04:14;;;;;;;1.52;1.13;;;3.10;99.90;;;;;;4090733;29;20187;-89
2020/12/07 03:06:16;;;;;;;1.30;1.10;;;3.10;99.90;;;;;;4102892;29;20115;-90
2020/12/07 03:08:18;;;;;;;5.03;1.92;;;3.10;99.90;;;;;;4118160;29;20587;-90
2020/12/07 03:10:20;;;;;;;3.85;1.58;;;3.20;99.90;;;;;;4106245;29;20051;-91
2020/12/07 03:12:21;;;;;;;2.10;2.00;;;3.20;99.90;;;;;;4102889;28;20131;-91
2020/12/07 03:14:23;;;;;;;1.65;1.55;;;3.20;99.90;;;;;;4086616;29;20111;-91
2020/12/07 03:16:25;;;;;;;1.85;0.85;;;3.20;99.90;;;;;;4085422;29;20044;-88
2020/12/07 03:18:26;;;;;;;2.45;1.42;;;3.20;99.90;;;;;;4083056;29;20067;-88
2020/12/07 03:20:28;;;;;;;3.72;2.38;;;3.20;99.90;;;;;;4083272;28;20048;-87
2020/12/07 03:22:32;;;;;;;1.17;0.95;;;3.20;99.90;;;;;;4084466;28;20055;-88
2020/12/07 03:24:33;;;;;;;1.52;0.77;;;3.20;99.90;;;;;;4084902;29;20535;-88
2020/12/07 03:26:35;;;;;;;5.93;3.05;;;3.20;99.90;;;;;;4070096;29;20082;-87
2020/12/07 03:28:37;;;;;;;2.08;1.65;;;3.20;99.90;;;;;;4067617;28;20053;-87
2020/12/07 03:30:38;;;;;;;1.65;1.55;;;3.20;99.90;;;;;;4082910;29;20524;-88
2020/12/07 03:32:40;;;;;;;4.07;1.63;;;3.10;99.90;;;;;;4083153;29;20051;-88
2020/12/07 03:34:41;;;;;;;2.08;1.75;;;3.20;99.90;;;;;;4083000;29;20452;-88
2020/12/07 03:36:42;;;;;;;2.97;1.50;;;3.10;99.90;;;;;;4099066;28;20051;-90
2020/12/07 03:38:44;;;;;;;2.63;1.63;;;3.10;99.90;;;;;;4083499;28;20527;-88
2020/12/07 03:40:45;;;;;;;0.95;0.65;;;3.20;99.90;;;;;;4067872;29;20056;-89
2020/12/07 03:42:47;;;;;;;2.17;1.40;;;3.10;99.90;;;;;;4085460;29;20575;-88
2020/12/07 03:44:48;;;;;;;2.58;1.52;;;3.10;99.90;;;;;;4070264;29;20051;-87
2020/12/07 03:46:50;;;;;;;5.10;1.33;;;3.10;99.90;;;;;;4085022;29;20055;-87
2020/12/07 03:48:51;;;;;;;3.13;2.92;;;3.00;99.90;;;;;;4084999;29;20062;-88
2020/12/07 03:50:52;;;;;;;3.92;2.63;;;3.10;99.90;;;;;;4070219;29;20568;-88
2020/12/07 03:52:56;;;;;;;1.38;1.27;;;3.00;99.90;;;;;;4069777;28;20063;-88
2020/12/07 03:54:57;;;;;;;5.95;1.63;;;3.10;99.90;;;;;;4085143;29;20052;-87
2020/12/07 03:56:58;;;;;;;3.83;2.35;;;3.00;99.90;;;;;;4101487;28;20051;-88
2020/12/07 03:59:01;;;;;;;1.70;1.38;;;3.00;99.90;;;;;;4084896;28;20146;-89
2020/12/07 04:01:04;;;;;;;1.98;1.00;;;3.00;99.90;;;;;;4085024;29;20424;-88
2020/12/07 04:03:08;;;;;;;1.75;1.00;;;3.00;99.90;;;;;;4085677;28;20056;-89
2020/12/07 04:05:17;;;;;;;;;;;3.00;99.90;;;;;;4085512;28;20451;-88
2020/12/07 04:07:18;;;;;;;0.82;0.80;;;3.10;99.90;;;;;;4100168;28;19922;-88
2020/12/07 04:09:20;;;;;;;1.75;1.45;;;3.10;99.90;;;;;;4085554;29;20058;-87
2020/12/07 04:11:21;;;;;;;4.82;2.00;;;3.00;99.90;;;;;;4084532;29;20503;-90
2020/12/07 04:13:22;;;;;;;0.77;0.75;;;3.00;99.90;;;;;;4102740;28;20518;-88
2020/12/07 04:15:24;;;;;;;1.90;1.77;;;3.00;99.90;;;;;;4085302;29;20064;-87
2020/12/07 04:17:27;;;;;;;10.27;1.65;;;2.90;99.90;;;;;;4103245;28;20125;-88
2020/12/07 04:19:28;;;;;;;4.65;1.73;;;2.90;99.90;;;;;;4084966;29;20059;-87
2020/12/07 04:21:30;;;;;;;1.25;0.90;;;3.00;99.90;;;;;;4085235;28;20075;-88
2020/12/07 04:23:32;;;;;;;2.28;2.08;;;2.90;99.90;;;;;;4084434;29;20420;-88
2020/12/07 04:25:34;;;;;;;3.90;2.45;;;3.00;99.90;;;;;;4084836;29;20062;-87
2020/12/07 04:27:35;;;;;;;3.50;1.98;;;3.00;99.90;;;;;;4085158;29;20138;-88
2020/12/07 04:29:36;;;;;;;4.40;0.95;;;3.10;99.90;;;;;;4084514;29;20086;-87
2020/12/07 04:31:40;;;;;;;2.80;2.35;;;3.00;99.90;;;;;;4070966;28;20080;-87
2020/12/07 04:33:41;;;;;;;1.33;1.05;;;3.10;99.90;;;;;;4084895;29;20056;-89
2020/12/07 04:35:42;;;;;;;2.72;2.25;;;3.00;99.90;;;;;;4100433;28;20142;-88
2020/12/07 04:37:44;;;;;;;4.13;1.75;;;3.00;99.90;;;;;;4071720;29;20481;-88
2020/12/07 04:39:45;;;;;;;6.85;1.83;;;3.00;99.90;;;;;;4084549;29;20397;-90
2020/12/07 04:41:46;;;;;;;1.48;0.90;;;3.00;99.90;;;;;;4099684;28;20062;-89
2020/12/07 04:43:48;;;;;;;4.38;1.17;;;3.10;99.90;;;;;;4093219;28;20661;-88
2020/12/07 04:45:50;;;;;;;1.65;1.42;;;3.10;99.90;;;;;;4085186;28;20056;-88
2020/12/07 04:47:52;;;;;;;3.05;1.15;;;3.10;99.90;;;;;;4068870;29;20420;-87
2020/12/07 04:49:56;;;;;;;1.23;1.13;;;3.10;99.90;;;;;;4084895;29;20051;-87
2020/12/07 04:51:57;;;;;;;3.17;2.55;;;3.10;99.90;;;;;;4098222;28;20059;-89
2020/12/07 04:54:02;;;;;;;1.35;1.02;;;3.10;99.90;;;;;;4085001;28;20066;-88
2020/12/07 04:56:04;;;;;;;5.07;1.48;;;3.10;99.90;;;;;;4084166;29;20500;-87
2020/12/07 04:58:05;;;;;;;2.20;1.40;;;3.10;99.90;;;;;;4084021;29;20063;-87
2020/12/07 05:00:07;;;;;;;1.30;1.20;;;3.10;99.90;;;;;;4068837;29;20056;-88
2020/12/07 05:02:09;;;;;;;2.63;1.60;;;3.10;99.90;;;;;;4084188;29;20508;-88
2020/12/07 05:04:10;;;;;;;2.30;1.83;;;3.10;99.90;;;;;;4070576;29;20052;-88
2020/12/07 05:06:14;;;;;;;4.95;2.72;;;3.10;99.90;;;;;;4084558;29;20058;-89
2020/12/07 05:08:15;;;;;;;1.85;1.40;;;3.10;99.90;;;;;;4085012;28;20531;-88
2020/12/07 05:10:23;;;;;;;3.05;1.42;;;3.10;99.90;;;;;;4086503;28;20047;-88
2020/12/07 05:12:35;;;;;;;1.08;0.95;;;3.20;99.90;;;;;;4099782;28;20511;-88
2020/12/07 05:14:36;;;;;;;1.67;1.05;;;3.20;99.90;;;;;;4084281;29;20114;-88
2020/12/07 05:16:37;;;;;;;1.73;1.48;;;3.20;99.90;;;;;;4085503;28;20055;-88
2020/12/07 05:18:39;;;;;;;2.00;1.23;;;3.20;99.90;;;;;;4099977;28;20051;-90
2020/12/07 05:20:41;;;;;;;2.50;2.10;;;3.30;99.90;;;;;;4068080;29;20063;-88
2020/12/07 05:22:42;;;;;;;4.10;1.75;;;3.30;99.90;;;;;;4100616;28;20059;-89
2020/12/07 05:24:48;;;;;;;1.80;1.70;;;3.30;99.90;;;;;;4084502;28;20524;-88
2020/12/07 05:26:52;;;;;;;0.50;0.50;;;3.30;99.90;;;;;;4084241;29;20150;-88
2020/12/07 05:28:55;;;;;;;2.50;1.42;;;3.20;99.90;;;;;;4100193;28;20063;-87
2020/12/07 05:30:58;;;;;;;3.95;1.67;;;3.30;99.90;;;;;;4100273;28;20059;-88
2020/12/07 05:33:00;;;;;;;2.22;1.67;;;3.30;99.90;;;;;;4084063;29;20052;-88
2020/12/07 05:35:05;;;;;;;1.05;0.88;;;3.30;99.90;;;;;;4084336;29;20151;-89
2020/12/07 05:37:06;;;;;;;1.50;1.40;;;3.30;99.90;;;;;;4102231;28;20049;-88
2020/12/07 05:39:09;;;;;;;1.02;0.88;;;3.30;99.90;;;;;;4084847;29;20059;-88
2020/12/07 05:41:11;;;;;;;1.38;1.27;;;3.30;99.90;;;;;;4089466;28;20055;-88
2020/12/07 05:43:16;;;;;;;3.63;0.70;;;3.30;99.90;;;;;;4084447;28;20066;-87
2020/12/07 05:45:17;;;;;;;2.28;1.95;;;3.30;99.90;;;;;;4084242;29;20055;-88
2020/12/07 05:47:18;;;;;;;3.03;1.85;;;3.30;99.90;;;;;;4068228;29;20065;-88
2020/12/07 05:49:23;;;;;;;2.20;1.15;;;3.40;99.90;;;;;;4072539;28;20043;-87
2020/12/07 05:51:26;;;;;;;4.78;1.95;;;3.40;99.90;;;;;;4084258;29;20424;-87
2020/12/07 05:53:28;;;;;;;2.65;1.98;;;3.40;99.90;;;;;;4067620;28;20150;-90
2020/12/07 05:55:31;;;;;;;1.80;1.10;;;3.40;99.90;;;;;;4083275;29;20066;-87
2020/12/07 05:57:34;;;;;;;1.38;1.27;;;3.40;99.90;;;;;;4084746;28;20146;-87
2020/12/07 05:59:42;;;;;;;1.95;1.67;;;3.40;99.90;;;;;;4082923;29;20138;-87
2020/12/07 06:01:44;;;;;;;1.15;1.05;;;3.40;99.90;;;;;;4089763;28;20074;-87
2020/12/07 06:03:45;;;;;;;1.50;1.10;;;3.40;99.90;;;;;;4082095;29;20428;-88
2020/12/07 06:05:48;;;;;;;2.53;0.65;;;3.40;99.90;;;;;;4085746;29;20352;-86
2020/12/07 06:07:54;;;;;;;2.38;1.33;;;3.50;99.90;;;;;;4098612;28;20614;-88
2020/12/07 06:09:56;;;;;;;3.22;1.95;;;3.50;99.90;;;;;;4099592;28;20067;-87
2020/12/07 06:12:09;;;;;;;5.35;0.88;;;3.50;99.90;;;;;;4080028;29;20061;-87
2020/12/07 06:14:11;;;;;;;2.35;2.17;;;3.50;99.90;;;;;;4083398;28;20134;-87
2020/12/07 06:16:12;;;;;;;2.25;1.38;;;3.50;99.90;;;;;;4082568;29;20583;-87
2020/12/07 06:18:28;;;;;;;1.73;1.25;;;3.50;99.90;;;;;;4067911;28;20105;-87
2020/12/07 06:20:33;;;;;;;2.05;0.77;;;3.50;99.90;;;;;;4085329;28;20056;-87
2020/12/07 06:22:34;;;;;;;0.88;0.80;;;3.50;99.90;;;;;;4082270;29;20127;-87
2020/12/07 06:24:38;;;;;;;0.82;0.73;;;3.50;99.90;;;;;;4098555;28;20479;-88
2020/12/07 06:26:41;;;;;;;2.38;2.00;;;3.50;99.90;;;;;;4098557;28;20055;-86
2020/12/07 06:28:43;;;;;;;0.85;0.63;;;3.50;99.90;;;;;;4098298;29;20055;-88
2020/12/07 06:30:48;;;;;;;1.45;1.20;;;3.50;99.90;;;;;;4068715;28;20063;-86
2020/12/07 06:32:54;;;;;;;5.78;1.42;;;3.50;99.90;;;;;;4071422;29;20079;-87
2020/12/07 06:34:57;;;;;;;2.55;1.38;;;3.50;99.90;;;;;;4097392;28;20057;-87
2020/12/07 06:37:01;;;;;;;0.93;0.75;;;3.50;99.90;;;;;;4098484;28;20056;-87
2020/12/07 06:39:08;;;;;;;1.23;0.98;;;3.50;99.90;;;;;;4072410;29;20151;-88
2020/12/07 06:41:10;;;;;;;2.05;1.60;;;3.50;99.90;;;;;;4110572;28;20053;-88
2020/12/07 06:43:16;;;;;;;2.17;1.98;;;3.60;99.90;;;;;;4067256;29;20052;-88
2020/12/07 06:45:31;;;;;;;3.25;1.52;;;3.60;99.90;;;;;;4083204;29;20060;-86
2020/12/07 06:47:32;;;;;;;2.70;2.20;;;3.60;99.90;;;;;;4083629;29;20048;-87
2020/12/07 06:49:40;;;;;;;4.65;1.90;;;3.60;99.90;;;;;;4070301;29;20055;-87
2020/12/07 06:51:45;;;;;;;3.97;1.80;;;3.60;99.90;;;;;;4085737;28;20066;-93
2020/12/07 06:53:48;;;;;;;3.47;0.98;;;3.60;99.90;;;;;;4097323;28;20051;-90
2020/12/07 06:55:49;;;;;;;0.60;0.60;;;3.60;99.90;;;;;;4113725;28;20102;-94
2020/12/07 06:57:53;;;;;;;2.53;1.30;;;3.60;99.90;;;;;;4103881;28;20054;-94
2020/12/07 06:59:56;;;;;;;2.33;1.02;;;3.50;99.90;;;;;;4102513;28;20527;-94
2020/12/07 07:01:57;;;;;;;4.05;2.55;;;3.60;99.90;;;;;;4115220;28;20043;-90
2020/12/07 07:03:58;;;;;;;2.75;1.33;;;3.60;99.90;;;;;;4115379;28;20069;-91
2020/12/07 07:06:09;;;;;;;1.15;1.02;;;3.60;99.90;;;;;;4115903;28;20125;-91
2020/12/07 07:08:10;;;;;;;8.68;1.85;;;3.50;99.90;;;;;;4114550;28;20042;-91
2020/12/07 07:10:13;;;;;;;1.45;1.15;;;3.50;99.90;;;;;;4116899;28;20173;-91
2020/12/07 07:12:14;;;;;;;2.38;1.02;;;3.50;99.90;;;;;;4114469;28;20058;-90
2020/12/07 07:14:15;;;;;;;1.30;1.10;;;3.50;99.90;;;;;;4085814;29;20057;-90
2020/12/07 07:16:17;;;;;;;2.38;1.88;;;3.50;99.90;;;;;;4099841;28;20438;-91
2020/12/07 07:18:18;;;;;;;6.03;1.63;;;3.50;99.90;;;;;;4102230;28;20161;-89
2020/12/07 07:20:19;;;;;;;2.15;1.73;;;3.50;99.90;;;;;;4094643;28;20054;-95
2020/12/07 07:22:21;;;;;;;2.92;2.17;;;3.50;99.90;;;;;;4127113;28;20055;-94
2020/12/07 07:24:24;;;;;;;7.00;3.53;;;3.50;99.90;;;;;;4110400;28;20059;-93
2020/12/07 07:26:29;;;;;;;5.22;2.83;;;3.50;99.90;;;;;;4105411;28;20131;-94
2020/12/07 07:28:31;;;;;;;1.13;0.95;;;3.50;99.90;;;;;;4076967;28;20051;-93
2020/12/07 07:30:32;;;;;;;0.85;0.77;;;3.50;99.90;;;;;;4088267;29;20138;-92
2020/12/07 07:32:34;;;;;;;2.50;1.45;;;3.50;99.90;;;;;;4093831;29;20115;-90
2020/12/07 07:34:35;;;;;;;1.35;1.25;;;3.40;99.90;;;;;;4106547;28;20043;-96
2020/12/07 07:36:36;;;;;;;2.63;2.17;;;3.50;99.90;;;;;;4124814;28;20074;-90
2020/12/07 07:38:38;;;;;;;6.32;3.75;;;3.40;99.90;;;;;;4095901;29;20389;-88
2020/12/07 07:40:39;;;;;;;1.88;1.70;;;3.50;99.90;;;;;;4114928;28;20045;-89
2020/12/07 07:42:43;;;;;;;0.73;0.73;;;3.50;99.90;;;;;;4110424;28;20051;-93
2020/12/07 07:44:48;;;;;;;3.97;1.60;;;3.50;99.90;;;;;;4102566;28;20055;-93
2020/12/07 07:46:50;;;;;;;3.03;1.33;;;3.50;99.90;;;;;;4109934;28;20071;-93
2020/12/07 08:01:54;;;;;;;8.25;3.10;;;3.50;99.90;;;;;;4094454;28;20051;-94
2020/12/07 08:16:57;;;;;;;3.50;2.00;;;3.50;99.90;;;;;;4069661;29;20047;-85
2020/12/07 08:18:59;;;;;;;4.00;3.10;;;3.60;99.90;;;;;;4058060;29;20113;-87
2020/12/07 08:21:05;;;;;;;4.60;2.10;;;3.60;99.90;;;;;;4069487;29;20032;-85
2020/12/07 08:23:06;;;;;;;1.92;1.70;;;3.60;99.90;;;;;;4069582;29;20144;-87
2020/12/07 08:25:08;;;;;;;6.20;2.10;;;3.70;99.90;;;;;;4055482;29;20073;-95
2020/12/07 08:27:12;;;;;;;4.68;1.70;;;3.70;99.90;;;;;;4038513;29;20059;-92
2020/12/07 08:29:13;;;;;;;1.83;1.73;;;3.70;99.90;;;;;;4055735;29;20120;-82
2020/12/07 08:31:18;;;;;;;8.32;2.03;;;3.70;99.90;;;;;;4064966;29;20036;-95
2020/12/07 08:33:20;;;;;;;4.43;1.83;;;3.80;99.90;;;;;;4059486;29;20086;-95
2020/12/07 08:35:22;;;;;;;3.38;1.05;;;3.80;99.90;;;;;;4062543;29;20143;-96
2020/12/07 08:37:24;;;;;;;4.47;2.25;;;3.80;99.90;;;;;;4070123;29;20112;-92
2020/12/07 08:39:26;;;;;;;2.80;1.23;;;3.80;99.90;;;;;;4048484;29;20490;-91
2020/12/07 08:41:29;;;;;;;3.55;2.58;;;3.80;99.90;;;;;;4066546;29;20127;-91
2020/12/07 08:43:30;;;;;;;7.03;0.90;;;3.80;99.90;;;;;;4064382;29;20121;-90
2020/12/07 08:45:31;;;;;;;2.28;2.10;;;3.90;99.90;;;;;;4084149;28;20079;-94
2020/12/07 08:47:32;;;;;;;2.15;1.90;;;3.90;99.90;;;;;;4123035;28;20065;-95
2020/12/07 08:49:34;;;;;;;3.28;1.30;;;3.90;99.90;;;;;;4100809;28;20062;-95
2020/12/07 08:51:36;;;;;;;2.65;1.85;;;3.90;99.90;;;;;;4101353;28;20353;-89
2020/12/07 08:53:38;;;;;;;1.25;1.15;;;3.90;99.90;;;;;;4110616;28;20055;-90
2020/12/07 08:55:39;;;;;;;2.60;1.90;;;3.80;99.90;;;;;;4108091;28;20047;-95
2020/12/07 08:57:41;;;;;;;5.47;1.27;;;3.80;99.90;;;;;;4117160;28;20065;-95
2020/12/07 08:59:42;;;;;;;1.77;1.35;;;3.90;99.90;;;;;;4102082;29;20043;-93
2020/12/07 09:01:43;;;;;;;2.58;1.67;;;3.80;99.90;;;;;;4118697;28;20035;-91
2020/12/07 09:03:46;;;;;;;1.50;1.38;;;3.90;99.90;;;;;;4119804;28;20114;-84
2020/12/07 09:05:47;;;;;;;5.65;2.83;;;3.90;99.90;;;;;;4112185;28;20115;-92
2020/12/07 09:07:48;;;;;;;1.63;1.48;;;3.90;99.90;;;;;;4127108;28;20090;-90
2020/12/07 09:09:50;;;;;;;2.30;2.13;;;3.90;99.90;;;;;;4118508;28;20069;-90
2020/12/07 09:11:51;;;;;;;3.47;1.35;;;4.00;99.90;;;;;;4099220;28;20036;-86
2020/12/07 09:13:52;;;;;;;5.03;1.70;;;4.00;99.90;;;;;;4114671;28;20176;-95
2020/12/07 09:15:54;;;;;;;5.00;2.65;;;4.10;99.90;;;;;;4109599;28;20059;-93
2020/12/07 09:17:55;;;;;;;1.48;1.38;;;4.10;99.90;;;;;;4121458;28;20114;-94
2020/12/07 09:19:56;;;;;;;3.50;1.20;;;4.10;99.90;;;;;;4110635;28;20505;-95
2020/12/07 09:21:57;;;;;;;2.00;0.98;;;4.20;99.90;;;;;;4095358;29;20130;-94
2020/12/07 09:23:59;;;;;;;1.30;1.15;;;4.30;99.90;;;;;;4106593;28;20043;-92
2020/12/07 09:26:01;;;;;;;1.95;1.33;;;4.30;99.90;;;;;;4119115;28;20118;-92
2020/12/07 09:28:03;;;;;;;2.08;1.88;;;4.30;99.90;;;;;;4091450;28;20043;-94
2020/12/07 09:30:05;;;;;;;1.90;0.70;;;4.40;99.90;;;;;;4107929;28;20071;-95
2020/12/07 09:32:07;;;;;;;1.27;1.17;;;4.40;99.90;;;;;;4105535;28;20047;-95
2020/12/07 09:34:08;;;;;;;0.95;0.90;;;4.40;99.90;;;;;;4102784;28;20067;-95
2020/12/07 09:36:09;;;;;;;1.90;1.15;;;4.50;99.90;;;;;;4101323;28;20066;-96
2020/12/07 09:38:11;;;;;;;3.38;2.00;;;4.60;99.90;;;;;;4087940;29;20044;-95
2020/12/07 09:40:12;;;;;;;2.42;1.17;;;4.60;99.90;;;;;;4110969;28;20055;-95
2020/12/07 09:42:14;;;;;;;1.75;1.65;;;4.60;99.90;;;;;;4122262;28;20097;-95
2020/12/07 09:44:15;;;;;;;1.52;1.40;;;4.70;99.90;;;;;;4094744;28;20059;-96
2020/12/07 09:46:17;;;;;;;1.27;1.17;;;4.70;99.90;;;;;;4086178;29;20048;-94
2020/12/07 09:48:18;;;;;;;0.85;0.80;;;4.70;99.90;;;;;;4103227;28;20521;-93
2020/12/07 09:50:19;;;;;;;13.63;0.85;;;4.80;99.90;;;;;;4104365;28;20438;-90
2020/12/07 09:52:20;;;;;;;0.73;0.73;;;4.80;99.90;;;;;;4088746;28;20051;-95
2020/12/07 09:54:22;;;;;;;4.60;1.33;;;4.80;99.90;;;;;;4102274;28;20525;-96
2020/12/07 09:56:24;;;;;;;3.00;2.33;;;4.70;99.80;;;;;;4105023;28;20047;-94
2020/12/07 09:58:26;;;;;;;1.08;1.08;;;4.80;99.80;;;;;;4104104;28;20047;-94
2020/12/07 10:00:27;;;;;;;4.13;3.20;;;4.80;99.90;;;;;;4119996;28;20138;-95
2020/12/07 10:02:29;;;;;;;3.50;2.17;;;4.80;99.90;;;;;;4119327;28;20049;-91
2020/12/07 10:04:30;;;;;;;2.03;1.35;;;4.80;99.80;;;;;;4101389;28;20051;-93
2020/12/07 10:06:31;;;;;;;1.60;1.35;;;4.80;99.50;;;;;;4100896;29;20062;-94
2020/12/07 10:08:33;;;;;;;3.88;1.23;;;4.80;99.50;;;;;;4086595;29;20039;-95
2020/12/07 10:10:34;;;;;;;2.47;2.20;;;4.90;99.70;;;;;;4090195;29;20047;-95
2020/12/07 10:12:41;;;;;;;2.20;0.90;;;4.90;99.40;;;;;;4086395;28;20047;-93
2020/12/07 10:14:43;;;;;;;2.40;1.33;;;4.90;99.20;;;;;;4102167;28;20054;-93
2020/12/07 10:16:44;;;;;;;1.58;1.33;;;4.90;99.40;;;;;;4095462;29;20046;-91
2020/12/07 10:18:46;;;;;;;0.93;0.93;;;4.90;99.50;;;;;;4115696;28;20063;-91
2020/12/07 10:20:47;;;;;;;3.00;1.15;;;5.00;99.20;;;;;;4094915;29;20485;-93
2020/12/07 10:22:48;;;;;;;2.30;0.47;;;5.00;99.30;;;;;;4093245;28;20415;-95
2020/12/07 10:24:49;;;;;;;2.00;1.75;;;5.00;99.20;;;;;;4084289;29;20052;-94
2020/12/07 10:26:51;;;;;;;1.75;1.48;;;5.00;99.10;;;;;;4084094;29;20134;-95
2020/12/07 10:28:52;;;;;;;1.98;1.80;;;4.90;98.90;;;;;;4086036;29;20523;-96
2020/12/07 10:30:53;;;;;;;0.80;0.77;;;5.00;99.00;;;;;;4104374;28;20063;-92
2020/12/07 10:32:55;;;;;;;4.63;2.53;;;5.00;99.00;;;;;;4119960;28;20051;-95
2020/12/07 10:34:56;;;;;;;3.15;1.70;;;5.00;98.80;;;;;;4112729;28;20054;-92
2020/12/07 10:36:58;;;;;;;2.80;1.70;;;5.10;98.90;;;;;;4118571;28;20118;-89
2020/12/07 10:38:59;;;;;;;0.63;0.63;;;5.10;99.00;;;;;;4120198;28;20065;-91
2020/12/07 10:41:01;;;;;;;1.58;1.08;;;5.20;98.80;;;;;;4133468;28;20106;-93
2020/12/07 10:43:02;;;;;;;2.65;1.60;;;5.20;98.10;;;;;;4117707;28;20291;-89
2020/12/07 10:45:04;;;;;;;2.13;1.27;;;5.20;98.10;;;;;;4127812;28;20437;-95
2020/12/07 10:47:05;;;;;;;2.70;2.03;;;5.30;97.70;;;;;;4099755;28;20603;-92
2020/12/07 10:49:07;;;;;;;1.23;1.17;;;5.40;98.30;;;;;;4100426;28;20138;-93
2020/12/07 10:51:12;;;;;;;2.17;0.82;;;5.50;98.20;;;;;;4118273;28;20046;-95
2020/12/07 10:53:13;;;;;;;0.70;0.65;;;5.50;97.80;;;;;;4105610;28;20134;-95
2020/12/07 10:55:15;;;;;;;1.15;0.90;;;5.60;97.60;;;;;;4118435;28;20049;-94
2020/12/07 10:57:16;;;;;;;3.35;1.58;;;5.50;97.40;;;;;;4118572;28;20437;-95
2020/12/07 10:59:17;;;;;;;2.35;1.65;;;5.60;97.40;;;;;;4104541;28;20134;-94
2020/12/07 11:01:19;;;;;;;3.63;3.30;;;5.60;97.70;;;;;;4101916;28;20039;-90
2020/12/07 11:03:20;;;;;;;3.83;2.63;;;5.70;97.20;;;;;;4102756;28;20137;-96
2020/12/07 11:05:26;;;;;;;2.97;2.58;;;5.70;97.30;;;;;;4087219;28;20138;-94
2020/12/07 11:07:29;;;;;;;2.00;1.88;;;5.80;97.20;;;;;;4086652;29;20167;-92
2020/12/07 11:09:30;;;;;;;2.28;1.65;;;5.80;97.40;;;;;;4086911;29;20443;-95
2020/12/07 11:11:32;;;;;;;2.70;2.03;;;5.90;96.60;;;;;;4102320;28;20055;-89